sensor_id;sensor_type;location;lat;lon;timestamp;P1;durP1;ratioP1;P2;durP2;ratioP2
16101;SDS011;56411;52.964;10.540;2023-02-15T00:00:47;115.80;;;43.77;;
16101;SDS011;56411;52.964;10.540;2023-02-15T00:03:15;127.47;;;46.00;;
16101;SDS011;56411;52.964;10.540;2023-02-15T00:05:42;115.47;;;44.60;;
16101;SDS011;56411;52.964;10.540;2023-02-15T00:08:09;125.03;;;44.30;;
16101;SDS011;56411;52.964;10.540;2023-02-15T00:10:36;120.47;;;43.67;;
16101;SDS011;56411;52.964;10.540;2023-02-15T00:13:03;104.37;;;40.93;;
16101;SDS011;56411;52.964;10.540;2023-02-15T00:15:30;106.53;;;41.50;;
16101;SDS011;56411;52.964;10.540;2023-02-15T00:17:58;101.43;;;39.80;;
16101;SDS011;56411;52.964;10.540;2023-02-15T00:20:25;109.33;;;41.23;;
16101;SDS011;56411;52.964;10.540;2023-02-15T00:22:52;120.40;;;41.63;;
16101;SDS011;56411;52.964;10.540;2023-02-15T00:25:19;115.43;;;42.17;;
16101;SDS011;56411;52.964;10.540;2023-02-15T00:27:46;122.50;;;43.50;;
16101;SDS011;56411;52.964;10.540;2023-02-15T00:30:13;126.77;;;42.00;;
16101;SDS011;56411;52.964;10.540;2023-02-15T00:32:40;110.97;;;41.33;;
16101;SDS011;56411;52.964;10.540;2023-02-15T00:35:08;119.73;;;42.73;;
16101;SDS011;56411;52.964;10.540;2023-02-15T00:37:35;127.10;;;43.13;;
16101;SDS011;56411;52.964;10.540;2023-02-15T00:40:03;116.10;;;41.83;;
16101;SDS011;56411;52.964;10.540;2023-02-15T00:42:30;107.07;;;41.07;;
16101;SDS011;56411;52.964;10.540;2023-02-15T00:44:57;107.60;;;41.43;;
16101;SDS011;56411;52.964;10.540;2023-02-15T00:47:24;104.17;;;40.97;;
16101;SDS011;56411;52.964;10.540;2023-02-15T00:49:51;113.50;;;41.60;;
16101;SDS011;56411;52.964;10.540;2023-02-15T00:52:19;104.40;;;41.00;;
16101;SDS011;56411;52.964;10.540;2023-02-15T00:54:46;108.53;;;39.80;;
16101;SDS011;56411;52.964;10.540;2023-02-15T00:57:13;100.20;;;39.90;;
16101;SDS011;56411;52.964;10.540;2023-02-15T00:59:40;116.13;;;42.23;;
16101;SDS011;56411;52.964;10.540;2023-02-15T01:02:07;104.00;;;40.73;;
16101;SDS011;56411;52.964;10.540;2023-02-15T01:04:34;101.63;;;39.80;;
16101;SDS011;56411;52.964;10.540;2023-02-15T01:07:01;113.63;;;40.83;;
16101;SDS011;56411;52.964;10.540;2023-02-15T01:09:30;123.87;;;42.47;;
16101;SDS011;56411;52.964;10.540;2023-02-15T01:11:56;121.83;;;42.37;;
16101;SDS011;56411;52.964;10.540;2023-02-15T01:14:23;114.37;;;39.80;;
16101;SDS011;56411;52.964;10.540;2023-02-15T01:16:50;110.30;;;40.67;;
16101;SDS011;56411;52.964;10.540;2023-02-15T01:19:17;109.87;;;40.67;;
16101;SDS011;56411;52.964;10.540;2023-02-15T01:21:44;112.80;;;40.37;;
16101;SDS011;56411;52.964;10.540;2023-02-15T01:24:11;108.73;;;39.47;;
16101;SDS011;56411;52.964;10.540;2023-02-15T01:26:40;108.73;;;40.20;;
16101;SDS011;56411;52.964;10.540;2023-02-15T01:29:07;121.30;;;41.37;;
16101;SDS011;56411;52.964;10.540;2023-02-15T01:31:34;129.40;;;42.03;;
16101;SDS011;56411;52.964;10.540;2023-02-15T01:34:03;120.77;;;40.03;;
16101;SDS011;56411;52.964;10.540;2023-02-15T01:36:30;123.00;;;42.80;;
16101;SDS011;56411;52.964;10.540;2023-02-15T01:39:00;120.13;;;42.27;;
16101;SDS011;56411;52.964;10.540;2023-02-15T01:41:27;108.13;;;39.60;;
16101;SDS011;56411;52.964;10.540;2023-02-15T01:43:57;134.17;;;44.70;;
16101;SDS011;56411;52.964;10.540;2023-02-15T01:46:27;131.70;;;43.57;;
16101;SDS011;56411;52.964;10.540;2023-02-15T01:49:00;120.83;;;42.13;;
16101;SDS011;56411;52.964;10.540;2023-02-15T01:51:30;138.23;;;45.17;;
16101;SDS011;56411;52.964;10.540;2023-02-15T01:54:01;142.23;;;45.17;;
16101;SDS011;56411;52.964;10.540;2023-02-15T01:56:33;144.63;;;44.57;;
16101;SDS011;56411;52.964;10.540;2023-02-15T01:59:04;143.27;;;44.87;;
16101;SDS011;56411;52.964;10.540;2023-02-15T02:01:35;138.43;;;44.57;;
16101;SDS011;56411;52.964;10.540;2023-02-15T02:04:05;142.17;;;46.07;;
16101;SDS011;56411;52.964;10.540;2023-02-15T02:06:37;137.43;;;43.73;;
16101;SDS011;56411;52.964;10.540;2023-02-15T02:09:06;144.53;;;45.63;;
16101;SDS011;56411;52.964;10.540;2023-02-15T02:11:33;148.43;;;45.27;;
16101;SDS011;56411;52.964;10.540;2023-02-15T02:14:01;152.43;;;46.50;;
16101;SDS011;56411;52.964;10.540;2023-02-15T02:16:30;128.43;;;42.57;;
16101;SDS011;56411;52.964;10.540;2023-02-15T02:22:08;131.43;;;43.50;;
16101;SDS011;56411;52.964;10.540;2023-02-15T02:25:04;128.67;;;42.23;;
16101;SDS011;56411;52.964;10.540;2023-02-15T02:28:12;134.73;;;42.47;;
16101;SDS011;56411;52.964;10.540;2023-02-15T02:30:58;135.80;;;43.10;;
16101;SDS011;56411;52.964;10.540;2023-02-15T02:33:48;139.60;;;42.93;;
16101;SDS011;56411;52.964;10.540;2023-02-15T02:36:24;127.00;;;42.67;;
16101;SDS011;56411;52.964;10.540;2023-02-15T02:39:04;137.73;;;42.50;;
16101;SDS011;56411;52.964;10.540;2023-02-15T02:41:37;127.37;;;42.17;;
16101;SDS011;56411;52.964;10.540;2023-02-15T02:44:12;141.63;;;44.00;;
16101;SDS011;56411;52.964;10.540;2023-02-15T02:46:46;127.87;;;40.97;;
16101;SDS011;56411;52.964;10.540;2023-02-15T02:49:28;150.80;;;44.40;;
16101;SDS011;56411;52.964;10.540;2023-02-15T02:52:00;143.53;;;43.27;;
16101;SDS011;56411;52.964;10.540;2023-02-15T02:54:28;156.33;;;45.63;;
16101;SDS011;56411;52.964;10.540;2023-02-15T02:56:56;166.43;;;45.97;;
16101;SDS011;56411;52.964;10.540;2023-02-15T02:59:29;165.63;;;46.37;;
16101;SDS011;56411;52.964;10.540;2023-02-15T03:02:00;143.87;;;44.47;;
16101;SDS011;56411;52.964;10.540;2023-02-15T03:04:35;158.30;;;46.13;;
16101;SDS011;56411;52.964;10.540;2023-02-15T03:07:04;164.97;;;48.20;;
16101;SDS011;56411;52.964;10.540;2023-02-15T03:09:34;177.10;;;49.20;;
16101;SDS011;56411;52.964;10.540;2023-02-15T03:12:07;157.03;;;47.20;;
16101;SDS011;56411;52.964;10.540;2023-02-15T03:14:37;150.37;;;45.67;;
16101;SDS011;56411;52.964;10.540;2023-02-15T03:17:06;138.73;;;43.97;;
16101;SDS011;56411;52.964;10.540;2023-02-15T03:19:36;138.60;;;42.93;;
16101;SDS011;56411;52.964;10.540;2023-02-15T03:22:05;130.90;;;42.03;;
16101;SDS011;56411;52.964;10.540;2023-02-15T03:24:38;133.57;;;42.37;;
16101;SDS011;56411;52.964;10.540;2023-02-15T03:27:10;123.60;;;41.80;;
16101;SDS011;56411;52.964;10.540;2023-02-15T03:29:42;119.43;;;38.80;;
16101;SDS011;56411;52.964;10.540;2023-02-15T03:32:12;144.07;;;41.53;;
16101;SDS011;56411;52.964;10.540;2023-02-15T03:34:44;140.87;;;42.47;;
16101;SDS011;56411;52.964;10.540;2023-02-15T03:37:13;157.47;;;43.77;;
16101;SDS011;56411;52.964;10.540;2023-02-15T03:39:47;150.37;;;42.23;;
16101;SDS011;56411;52.964;10.540;2023-02-15T03:42:19;130.63;;;42.73;;
16101;SDS011;56411;52.964;10.540;2023-02-15T03:44:54;143.57;;;42.90;;
16101;SDS011;56411;52.964;10.540;2023-02-15T03:47:25;143.07;;;43.80;;
16101;SDS011;56411;52.964;10.540;2023-02-15T03:49:58;150.37;;;40.70;;
16101;SDS011;56411;52.964;10.540;2023-02-15T03:52:28;126.37;;;39.83;;
16101;SDS011;56411;52.964;10.540;2023-02-15T03:54:56;134.10;;;38.83;;
16101;SDS011;56411;52.964;10.540;2023-02-15T03:57:24;124.63;;;41.53;;
16101;SDS011;56411;52.964;10.540;2023-02-15T04:00:12;122.67;;;39.97;;
16101;SDS011;56411;52.964;10.540;2023-02-15T04:03:02;133.17;;;41.90;;
16101;SDS011;56411;52.964;10.540;2023-02-15T04:05:40;135.30;;;41.80;;
16101;SDS011;56411;52.964;10.540;2023-02-15T04:08:08;199.00;;;43.43;;
16101;SDS011;56411;52.964;10.540;2023-02-15T04:10:35;176.30;;;49.27;;
16101;SDS011;56411;52.964;10.540;2023-02-15T04:13:21;225.93;;;49.97;;
16101;SDS011;56411;52.964;10.540;2023-02-15T04:15:49;205.50;;;53.50;;
16101;SDS011;56411;52.964;10.540;2023-02-15T04:18:31;263.40;;;50.67;;
16101;SDS011;56411;52.964;10.540;2023-02-15T04:21:19;245.93;;;47.50;;
16101;SDS011;56411;52.964;10.540;2023-02-15T04:24:04;232.07;;;51.60;;
16101;SDS011;56411;52.964;10.540;2023-02-15T04:26:49;294.00;;;47.37;;
16101;SDS011;56411;52.964;10.540;2023-02-15T04:29:17;183.77;;;41.80;;
16101;SDS011;56411;52.964;10.540;2023-02-15T04:31:45;177.20;;;45.10;;
16101;SDS011;56411;52.964;10.540;2023-02-15T04:34:12;202.23;;;41.53;;
16101;SDS011;56411;52.964;10.540;2023-02-15T04:36:40;152.23;;;41.67;;
16101;SDS011;56411;52.964;10.540;2023-02-15T04:39:08;149.87;;;41.37;;
16101;SDS011;56411;52.964;10.540;2023-02-15T04:41:35;224.27;;;42.87;;
16101;SDS011;56411;52.964;10.540;2023-02-15T04:44:02;194.77;;;43.07;;
16101;SDS011;56411;52.964;10.540;2023-02-15T04:46:30;135.90;;;42.43;;
16101;SDS011;56411;52.964;10.540;2023-02-15T04:48:57;134.87;;;40.47;;
16101;SDS011;56411;52.964;10.540;2023-02-15T04:51:24;150.03;;;41.50;;
16101;SDS011;56411;52.964;10.540;2023-02-15T04:53:52;163.13;;;41.83;;
16101;SDS011;56411;52.964;10.540;2023-02-15T04:56:20;147.03;;;42.67;;
16101;SDS011;56411;52.964;10.540;2023-02-15T04:58:47;152.33;;;42.67;;
16101;SDS011;56411;52.964;10.540;2023-02-15T05:01:14;178.30;;;41.83;;
16101;SDS011;56411;52.964;10.540;2023-02-15T05:03:41;147.83;;;42.20;;
16101;SDS011;56411;52.964;10.540;2023-02-15T05:06:09;162.40;;;39.83;;
16101;SDS011;56411;52.964;10.540;2023-02-15T05:08:36;137.83;;;41.50;;
16101;SDS011;56411;52.964;10.540;2023-02-15T05:11:04;143.40;;;42.07;;
16101;SDS011;56411;52.964;10.540;2023-02-15T05:13:31;126.60;;;40.87;;
16101;SDS011;56411;52.964;10.540;2023-02-15T05:15:58;135.53;;;40.03;;
16101;SDS011;56411;52.964;10.540;2023-02-15T05:18:25;137.50;;;40.70;;
16101;SDS011;56411;52.964;10.540;2023-02-15T05:20:52;119.67;;;39.17;;
16101;SDS011;56411;52.964;10.540;2023-02-15T05:23:22;115.67;;;37.40;;
16101;SDS011;56411;52.964;10.540;2023-02-15T05:25:49;116.37;;;36.63;;
16101;SDS011;56411;52.964;10.540;2023-02-15T05:28:36;95.13;;;33.37;;
16101;SDS011;56411;52.964;10.540;2023-02-15T05:31:06;89.27;;;34.10;;
16101;SDS011;56411;52.964;10.540;2023-02-15T05:33:36;95.47;;;33.50;;
16101;SDS011;56411;52.964;10.540;2023-02-15T05:36:03;83.27;;;31.90;;
16101;SDS011;56411;52.964;10.540;2023-02-15T05:38:31;86.67;;;35.03;;
16101;SDS011;56411;52.964;10.540;2023-02-15T05:40:58;91.33;;;33.07;;
16101;SDS011;56411;52.964;10.540;2023-02-15T05:43:25;86.33;;;32.63;;
16101;SDS011;56411;52.964;10.540;2023-02-15T05:45:54;87.13;;;34.43;;
16101;SDS011;56411;52.964;10.540;2023-02-15T05:48:21;92.73;;;32.50;;
16101;SDS011;56411;52.964;10.540;2023-02-15T05:50:56;80.87;;;31.37;;
16101;SDS011;56411;52.964;10.540;2023-02-15T05:53:23;81.40;;;31.40;;
16101;SDS011;56411;52.964;10.540;2023-02-15T05:55:50;86.57;;;32.83;;
16101;SDS011;56411;52.964;10.540;2023-02-15T05:58:18;83.27;;;32.10;;
16101;SDS011;56411;52.964;10.540;2023-02-15T06:00:45;81.23;;;30.57;;
16101;SDS011;56411;52.964;10.540;2023-02-15T06:03:14;79.43;;;29.43;;
16101;SDS011;56411;52.964;10.540;2023-02-15T06:05:41;70.57;;;29.53;;
16101;SDS011;56411;52.964;10.540;2023-02-15T06:08:08;73.00;;;28.67;;
16101;SDS011;56411;52.964;10.540;2023-02-15T06:10:35;92.77;;;29.57;;
16101;SDS011;56411;52.964;10.540;2023-02-15T06:13:02;74.63;;;28.70;;
16101;SDS011;56411;52.964;10.540;2023-02-15T06:15:29;76.57;;;29.07;;
16101;SDS011;56411;52.964;10.540;2023-02-15T06:17:56;71.43;;;30.50;;
16101;SDS011;56411;52.964;10.540;2023-02-15T06:20:24;118.03;;;31.63;;
16101;SDS011;56411;52.964;10.540;2023-02-15T06:22:52;130.27;;;33.37;;
16101;SDS011;56411;52.964;10.540;2023-02-15T06:25:18;78.80;;;32.77;;
16101;SDS011;56411;52.964;10.540;2023-02-15T06:27:45;71.60;;;31.07;;
16101;SDS011;56411;52.964;10.540;2023-02-15T06:30:13;95.33;;;31.10;;
16101;SDS011;56411;52.964;10.540;2023-02-15T06:32:40;71.37;;;30.43;;
16101;SDS011;56411;52.964;10.540;2023-02-15T06:35:07;69.77;;;32.07;;
16101;SDS011;56411;52.964;10.540;2023-02-15T06:37:36;110.37;;;40.67;;
16101;SDS011;56411;52.964;10.540;2023-02-15T06:40:03;75.13;;;35.60;;
16101;SDS011;56411;52.964;10.540;2023-02-15T06:42:31;75.10;;;31.57;;
16101;SDS011;56411;52.964;10.540;2023-02-15T06:44:58;74.83;;;30.97;;
16101;SDS011;56411;52.964;10.540;2023-02-15T06:47:25;71.60;;;31.80;;
16101;SDS011;56411;52.964;10.540;2023-02-15T06:49:52;72.17;;;29.50;;
16101;SDS011;56411;52.964;10.540;2023-02-15T06:52:19;65.73;;;29.10;;
16101;SDS011;56411;52.964;10.540;2023-02-15T06:54:47;76.60;;;30.00;;
16101;SDS011;56411;52.964;10.540;2023-02-15T06:57:14;104.83;;;28.00;;
16101;SDS011;56411;52.964;10.540;2023-02-15T06:59:41;77.87;;;28.57;;
16101;SDS011;56411;52.964;10.540;2023-02-15T07:02:08;80.17;;;28.73;;
16101;SDS011;56411;52.964;10.540;2023-02-15T07:04:36;63.27;;;28.10;;
16101;SDS011;56411;52.964;10.540;2023-02-15T07:07:04;58.23;;;27.00;;
16101;SDS011;56411;52.964;10.540;2023-02-15T07:09:34;62.30;;;27.63;;
16101;SDS011;56411;52.964;10.540;2023-02-15T07:12:03;63.83;;;28.30;;
16101;SDS011;56411;52.964;10.540;2023-02-15T07:14:47;63.47;;;27.50;;
16101;SDS011;56411;52.964;10.540;2023-02-15T07:17:14;65.40;;;29.23;;
16101;SDS011;56411;52.964;10.540;2023-02-15T07:19:42;75.57;;;29.47;;
16101;SDS011;56411;52.964;10.540;2023-02-15T07:22:09;68.83;;;28.90;;
16101;SDS011;56411;52.964;10.540;2023-02-15T07:24:36;98.43;;;28.90;;
16101;SDS011;56411;52.964;10.540;2023-02-15T07:27:04;63.57;;;26.93;;
16101;SDS011;56411;52.964;10.540;2023-02-15T07:29:32;58.57;;;26.97;;
16101;SDS011;56411;52.964;10.540;2023-02-15T07:31:59;81.73;;;27.47;;
16101;SDS011;56411;52.964;10.540;2023-02-15T07:34:26;115.63;;;28.27;;
16101;SDS011;56411;52.964;10.540;2023-02-15T07:36:53;94.60;;;26.03;;
16101;SDS011;56411;52.964;10.540;2023-02-15T07:39:20;62.60;;;26.93;;
16101;SDS011;56411;52.964;10.540;2023-02-15T07:41:47;67.57;;;26.63;;
16101;SDS011;56411;52.964;10.540;2023-02-15T07:44:15;92.20;;;27.37;;
16101;SDS011;56411;52.964;10.540;2023-02-15T07:46:42;60.17;;;25.57;;
16101;SDS011;56411;52.964;10.540;2023-02-15T07:49:09;60.97;;;23.97;;
16101;SDS011;56411;52.964;10.540;2023-02-15T07:51:36;48.03;;;24.30;;
16101;SDS011;56411;52.964;10.540;2023-02-15T07:54:03;64.00;;;24.53;;
16101;SDS011;56411;52.964;10.540;2023-02-15T07:56:30;63.80;;;25.27;;
16101;SDS011;56411;52.964;10.540;2023-02-15T07:58:58;48.83;;;23.90;;
16101;SDS011;56411;52.964;10.540;2023-02-15T08:01:31;83.30;;;24.33;;
16101;SDS011;56411;52.964;10.540;2023-02-15T08:03:59;82.37;;;23.53;;
16101;SDS011;56411;52.964;10.540;2023-02-15T08:06:26;93.03;;;23.57;;
16101;SDS011;56411;52.964;10.540;2023-02-15T08:08:54;43.60;;;22.43;;
16101;SDS011;56411;52.964;10.540;2023-02-15T08:11:22;44.87;;;24.40;;
16101;SDS011;56411;52.964;10.540;2023-02-15T08:13:59;50.07;;;22.43;;
16101;SDS011;56411;52.964;10.540;2023-02-15T08:16:30;42.87;;;22.43;;
16101;SDS011;56411;52.964;10.540;2023-02-15T08:18:58;50.43;;;22.20;;
16101;SDS011;56411;52.964;10.540;2023-02-15T08:21:27;49.70;;;23.67;;
16101;SDS011;56411;52.964;10.540;2023-02-15T08:23:55;78.27;;;24.77;;
16101;SDS011;56411;52.964;10.540;2023-02-15T08:26:23;42.23;;;21.73;;
16101;SDS011;56411;52.964;10.540;2023-02-15T08:28:51;42.73;;;21.80;;
16101;SDS011;56411;52.964;10.540;2023-02-15T08:31:18;43.70;;;23.97;;
16101;SDS011;56411;52.964;10.540;2023-02-15T08:33:48;40.77;;;22.93;;
16101;SDS011;56411;52.964;10.540;2023-02-15T08:36:17;46.27;;;22.57;;
16101;SDS011;56411;52.964;10.540;2023-02-15T08:38:47;46.43;;;20.53;;
16101;SDS011;56411;52.964;10.540;2023-02-15T08:41:16;49.70;;;21.37;;
16101;SDS011;56411;52.964;10.540;2023-02-15T08:43:44;46.10;;;20.87;;
16101;SDS011;56411;52.964;10.540;2023-02-15T08:46:13;80.07;;;22.33;;
16101;SDS011;56411;52.964;10.540;2023-02-15T08:48:41;82.60;;;21.63;;
16101;SDS011;56411;52.964;10.540;2023-02-15T08:51:10;85.20;;;22.03;;
16101;SDS011;56411;52.964;10.540;2023-02-15T08:53:39;40.70;;;20.50;;
16101;SDS011;56411;52.964;10.540;2023-02-15T08:56:06;42.20;;;21.37;;
16101;SDS011;56411;52.964;10.540;2023-02-15T08:58:34;44.17;;;21.70;;
16101;SDS011;56411;52.964;10.540;2023-02-15T09:01:07;40.17;;;21.10;;
16101;SDS011;56411;52.964;10.540;2023-02-15T09:03:35;49.47;;;21.63;;
16101;SDS011;56411;52.964;10.540;2023-02-15T09:06:02;54.80;;;21.97;;
16101;SDS011;56411;52.964;10.540;2023-02-15T09:08:31;38.43;;;20.97;;
16101;SDS011;56411;52.964;10.540;2023-02-15T09:11:05;69.60;;;21.83;;
16101;SDS011;56411;52.964;10.540;2023-02-15T09:13:32;45.57;;;21.23;;
16101;SDS011;56411;52.964;10.540;2023-02-15T09:16:01;37.90;;;21.07;;
16101;SDS011;56411;52.964;10.540;2023-02-15T09:18:29;47.03;;;21.20;;
16101;SDS011;56411;52.964;10.540;2023-02-15T09:21:03;35.70;;;21.23;;
16101;SDS011;56411;52.964;10.540;2023-02-15T09:23:33;35.30;;;19.43;;
16101;SDS011;56411;52.964;10.540;2023-02-15T09:26:04;40.50;;;19.23;;
16101;SDS011;56411;52.964;10.540;2023-02-15T09:28:31;37.33;;;20.47;;
16101;SDS011;56411;52.964;10.540;2023-02-15T09:31:09;34.97;;;19.07;;
16101;SDS011;56411;52.964;10.540;2023-02-15T09:33:37;33.67;;;18.60;;
16101;SDS011;56411;52.964;10.540;2023-02-15T09:36:06;32.93;;;19.27;;
16101;SDS011;56411;52.964;10.540;2023-02-15T09:38:42;33.40;;;19.17;;
16101;SDS011;56411;52.964;10.540;2023-02-15T09:41:14;36.10;;;19.63;;
16101;SDS011;56411;52.964;10.540;2023-02-15T09:43:52;35.10;;;20.50;;
16101;SDS011;56411;52.964;10.540;2023-02-15T09:46:33;48.20;;;19.53;;
16101;SDS011;56411;52.964;10.540;2023-02-15T09:49:11;35.47;;;19.83;;
16101;SDS011;56411;52.964;10.540;2023-02-15T09:54:57;49.27;;;19.73;;
16101;SDS011;56411;52.964;10.540;2023-02-15T09:57:32;39.83;;;19.93;;
16101;SDS011;56411;52.964;10.540;2023-02-15T10:00:08;33.73;;;19.33;;
16101;SDS011;56411;52.964;10.540;2023-02-15T10:02:46;36.53;;;20.97;;
16101;SDS011;56411;52.964;10.540;2023-02-15T10:05:30;36.00;;;20.70;;
16101;SDS011;56411;52.964;10.540;2023-02-15T10:08:10;36.50;;;21.40;;
16101;SDS011;56411;52.964;10.540;2023-02-15T10:10:53;36.47;;;21.57;;
16101;SDS011;56411;52.964;10.540;2023-02-15T10:13:48;36.00;;;21.90;;
16101;SDS011;56411;52.964;10.540;2023-02-15T10:16:21;37.03;;;22.20;;
16101;SDS011;56411;52.964;10.540;2023-02-15T10:18:59;36.07;;;21.67;;
16101;SDS011;56411;52.964;10.540;2023-02-15T10:21:37;33.27;;;20.40;;
16101;SDS011;56411;52.964;10.540;2023-02-15T10:24:16;34.40;;;21.47;;
16101;SDS011;56411;52.964;10.540;2023-02-15T10:27:00;36.80;;;22.37;;
16101;SDS011;56411;52.964;10.540;2023-02-15T10:29:33;36.60;;;22.10;;
16101;SDS011;56411;52.964;10.540;2023-02-15T10:32:05;40.40;;;22.83;;
16101;SDS011;56411;52.964;10.540;2023-02-15T10:34:43;39.43;;;23.10;;
16101;SDS011;56411;52.964;10.540;2023-02-15T10:37:28;38.00;;;23.77;;
16101;SDS011;56411;52.964;10.540;2023-02-15T10:40:22;38.10;;;23.20;;
16101;SDS011;56411;52.964;10.540;2023-02-15T10:43:00;37.60;;;22.63;;
16101;SDS011;56411;52.964;10.540;2023-02-15T10:45:40;38.17;;;23.67;;
16101;SDS011;56411;52.964;10.540;2023-02-15T10:48:21;40.17;;;23.30;;
16101;SDS011;56411;52.964;10.540;2023-02-15T10:51:01;36.77;;;22.13;;
16101;SDS011;56411;52.964;10.540;2023-02-15T10:53:36;37.40;;;23.30;;
16101;SDS011;56411;52.964;10.540;2023-02-15T10:56:29;37.63;;;22.47;;
16101;SDS011;56411;52.964;10.540;2023-02-15T10:59:06;35.03;;;21.97;;
16101;SDS011;56411;52.964;10.540;2023-02-15T11:01:47;34.93;;;22.00;;
16101;SDS011;56411;52.964;10.540;2023-02-15T11:07:14;35.93;;;21.70;;
16101;SDS011;56411;52.964;10.540;2023-02-15T11:09:44;32.73;;;21.17;;
16101;SDS011;56411;52.964;10.540;2023-02-15T11:12:16;34.80;;;21.73;;
16101;SDS011;56411;52.964;10.540;2023-02-15T11:14:48;33.07;;;20.73;;
16101;SDS011;56411;52.964;10.540;2023-02-15T11:17:20;35.67;;;22.17;;
16101;SDS011;56411;52.964;10.540;2023-02-15T11:19:54;34.90;;;21.13;;
16101;SDS011;56411;52.964;10.540;2023-02-15T11:22:27;36.47;;;22.80;;
16101;SDS011;56411;52.964;10.540;2023-02-15T11:24:56;34.30;;;22.10;;
16101;SDS011;56411;52.964;10.540;2023-02-15T11:27:26;30.70;;;20.40;;
16101;SDS011;56411;52.964;10.540;2023-02-15T11:29:59;31.50;;;19.57;;
16101;SDS011;56411;52.964;10.540;2023-02-15T11:32:30;32.57;;;21.90;;
16101;SDS011;56411;52.964;10.540;2023-02-15T11:35:03;30.10;;;19.80;;
16101;SDS011;56411;52.964;10.540;2023-02-15T11:37:38;29.37;;;19.50;;
16101;SDS011;56411;52.964;10.540;2023-02-15T11:40:14;27.40;;;18.70;;
16101;SDS011;56411;52.964;10.540;2023-02-15T11:42:47;28.23;;;18.43;;
16101;SDS011;56411;52.964;10.540;2023-02-15T11:45:21;28.90;;;18.07;;
16101;SDS011;56411;52.964;10.540;2023-02-15T11:47:53;25.90;;;17.17;;
16101;SDS011;56411;52.964;10.540;2023-02-15T11:50:22;28.20;;;18.37;;
16101;SDS011;56411;52.964;10.540;2023-02-15T11:52:50;27.87;;;18.30;;
16101;SDS011;56411;52.964;10.540;2023-02-15T11:55:22;26.93;;;18.37;;
16101;SDS011;56411;52.964;10.540;2023-02-15T11:57:51;25.87;;;17.93;;
16101;SDS011;56411;52.964;10.540;2023-02-15T12:00:27;23.65;;;16.73;;
16101;SDS011;56411;52.964;10.540;2023-02-15T12:03:01;26.55;;;17.98;;
16101;SDS011;56411;52.964;10.540;2023-02-15T12:05:32;24.90;;;16.87;;
16101;SDS011;56411;52.964;10.540;2023-02-15T12:08:01;25.23;;;17.27;;
16101;SDS011;56411;52.964;10.540;2023-02-15T12:10:34;25.13;;;17.00;;
16101;SDS011;56411;52.964;10.540;2023-02-15T12:13:10;25.05;;;17.40;;
16101;SDS011;56411;52.964;10.540;2023-02-15T12:15:40;24.98;;;17.75;;
16101;SDS011;56411;52.964;10.540;2023-02-15T12:18:15;24.08;;;17.10;;
16101;SDS011;56411;52.964;10.540;2023-02-15T12:20:51;24.48;;;17.42;;
16101;SDS011;56411;52.964;10.540;2023-02-15T12:23:18;25.70;;;17.77;;
16101;SDS011;56411;52.964;10.540;2023-02-15T12:25:49;25.42;;;17.98;;
16101;SDS011;56411;52.964;10.540;2023-02-15T12:28:23;24.50;;;17.45;;
16101;SDS011;56411;52.964;10.540;2023-02-15T12:30:56;22.65;;;16.13;;
16101;SDS011;56411;52.964;10.540;2023-02-15T12:33:26;24.48;;;17.30;;
16101;SDS011;56411;52.964;10.540;2023-02-15T12:35:57;23.23;;;16.42;;
16101;SDS011;56411;52.964;10.540;2023-02-15T12:38:26;23.35;;;16.92;;
16101;SDS011;56411;52.964;10.540;2023-02-15T12:40:58;22.95;;;16.70;;
16101;SDS011;56411;52.964;10.540;2023-02-15T12:43:26;24.77;;;17.20;;
16101;SDS011;56411;52.964;10.540;2023-02-15T12:46:07;23.38;;;16.63;;
16101;SDS011;56411;52.964;10.540;2023-02-15T12:48:47;23.30;;;17.33;;
16101;SDS011;56411;52.964;10.540;2023-02-15T12:51:41;25.52;;;17.15;;
16101;SDS011;56411;52.964;10.540;2023-02-15T12:54:16;23.48;;;17.05;;
16101;SDS011;56411;52.964;10.540;2023-02-15T12:57:14;23.30;;;17.25;;
16101;SDS011;56411;52.964;10.540;2023-02-15T12:59:50;24.27;;;16.90;;
16101;SDS011;56411;52.964;10.540;2023-02-15T13:02:22;23.70;;;16.88;;
16101;SDS011;56411;52.964;10.540;2023-02-15T13:04:51;22.92;;;16.58;;
16101;SDS011;56411;52.964;10.540;2023-02-15T13:07:20;23.00;;;16.55;;
16101;SDS011;56411;52.964;10.540;2023-02-15T13:09:47;23.02;;;16.23;;
16101;SDS011;56411;52.964;10.540;2023-02-15T13:12:17;22.83;;;16.80;;
16101;SDS011;56411;52.964;10.540;2023-02-15T13:14:47;24.35;;;17.13;;
16101;SDS011;56411;52.964;10.540;2023-02-15T13:17:17;22.75;;;16.67;;
16101;SDS011;56411;52.964;10.540;2023-02-15T13:19:50;23.45;;;17.02;;
16101;SDS011;56411;52.964;10.540;2023-02-15T13:22:20;22.42;;;16.20;;
16101;SDS011;56411;52.964;10.540;2023-02-15T13:24:51;23.13;;;16.48;;
16101;SDS011;56411;52.964;10.540;2023-02-15T13:27:22;25.15;;;17.75;;
16101;SDS011;56411;52.964;10.540;2023-02-15T13:29:56;22.90;;;16.80;;
16101;SDS011;56411;52.964;10.540;2023-02-15T13:32:28;23.95;;;16.33;;
16101;SDS011;56411;52.964;10.540;2023-02-15T13:34:59;22.05;;;15.65;;
16101;SDS011;56411;52.964;10.540;2023-02-15T13:37:35;23.95;;;16.88;;
16101;SDS011;56411;52.964;10.540;2023-02-15T13:40:20;22.95;;;16.33;;
16101;SDS011;56411;52.964;10.540;2023-02-15T13:42:49;23.42;;;16.10;;
16101;SDS011;56411;52.964;10.540;2023-02-15T13:45:27;22.40;;;16.08;;
16101;SDS011;56411;52.964;10.540;2023-02-15T13:48:05;22.40;;;15.55;;
16101;SDS011;56411;52.964;10.540;2023-02-15T13:50:45;22.10;;;16.40;;
16101;SDS011;56411;52.964;10.540;2023-02-15T13:53:40;21.40;;;15.90;;
16101;SDS011;56411;52.964;10.540;2023-02-15T13:56:16;23.23;;;16.80;;
16101;SDS011;56411;52.964;10.540;2023-02-15T13:59:02;22.13;;;16.20;;
16101;SDS011;56411;52.964;10.540;2023-02-15T14:01:52;23.70;;;17.00;;
16101;SDS011;56411;52.964;10.540;2023-02-15T14:04:32;22.73;;;16.17;;
16101;SDS011;56411;52.964;10.540;2023-02-15T14:07:22;22.23;;;15.88;;
16101;SDS011;56411;52.964;10.540;2023-02-15T14:10:17;23.73;;;15.52;;
16101;SDS011;56411;52.964;10.540;2023-02-15T14:13:05;20.65;;;15.05;;
16101;SDS011;56411;52.964;10.540;2023-02-15T14:15:55;21.67;;;16.20;;
16101;SDS011;56411;52.964;10.540;2023-02-15T14:18:29;21.38;;;15.02;;
16101;SDS011;56411;52.964;10.540;2023-02-15T14:21:05;22.13;;;15.55;;
16101;SDS011;56411;52.964;10.540;2023-02-15T14:23:40;22.33;;;15.48;;
16101;SDS011;56411;52.964;10.540;2023-02-15T14:26:16;21.75;;;15.70;;
16101;SDS011;56411;52.964;10.540;2023-02-15T14:28:55;21.80;;;15.75;;
16101;SDS011;56411;52.964;10.540;2023-02-15T14:31:29;21.52;;;15.40;;
16101;SDS011;56411;52.964;10.540;2023-02-15T14:34:00;22.15;;;15.73;;
16101;SDS011;56411;52.964;10.540;2023-02-15T14:36:29;23.38;;;15.95;;
16101;SDS011;56411;52.964;10.540;2023-02-15T14:39:02;23.95;;;16.45;;